createdAt,value
2023-02-08T00:00:06.147Z,-6.3
2023-02-08T00:01:05.816Z,-6.3
2023-02-08T00:02:06.585Z,-6.3
2023-02-08T00:03:06.083Z,-6.3
2023-02-08T00:04:06.749Z,-6.3
2023-02-08T00:05:06.200Z,-6.2
2023-02-08T00:06:05.733Z,-6.2
2023-02-08T00:07:06.358Z,-6.2
2023-02-08T00:08:05.895Z,-8
2023-02-08T00:09:06.480Z,-8
2023-02-08T00:10:06.169Z,-6.2
2023-02-08T00:11:05.888Z,-6.2
2023-02-08T00:12:06.471Z,-6.2
2023-02-08T00:13:06.140Z,-6.2
2023-02-08T00:14:06.696Z,-6.2
2023-02-08T00:15:06.328Z,-6.2
2023-02-08T00:16:06.210Z,-6.2
2023-02-08T00:17:06.659Z,-6.2
2023-02-08T00:18:06.094Z,-7
2023-02-08T00:19:06.733Z,-6.1
2023-02-08T00:20:06.341Z,-6.1
2023-02-08T00:21:05.746Z,-6
2023-02-08T00:22:06.574Z,-6
2023-02-08T00:23:06.162Z,-7
2023-02-08T00:24:06.613Z,-6
2023-02-08T00:25:06.149Z,-6
2023-02-08T00:26:05.745Z,-6
2023-02-08T00:27:06.413Z,-6
2023-02-08T00:28:11.436Z,-6
2023-02-08T00:29:06.594Z,-7
2023-02-08T00:30:06.198Z,-6
2023-02-08T00:31:06.352Z,-6
2023-02-08T00:32:06.705Z,-7
2023-02-08T00:33:06.127Z,-7
2023-02-08T00:34:06.708Z,-6
2023-02-08T00:35:06.115Z,-6
2023-02-08T00:36:05.925Z,-6
2023-02-08T00:37:06.533Z,-5.9
2023-02-08T00:38:06.153Z,-5.9
2023-02-08T00:39:05.777Z,-5.9
2023-02-08T00:40:06.341Z,-7
2023-02-08T00:41:05.865Z,-5.9
2023-02-08T00:42:06.603Z,-5.9
2023-02-08T00:43:06.151Z,-5.9
2023-02-08T00:44:05.794Z,-5.9
2023-02-08T00:45:06.216Z,-5.9
2023-02-08T00:46:06.465Z,-6
2023-02-08T00:47:06.070Z,-5.9
2023-02-08T00:48:06.698Z,-6
2023-02-08T00:49:06.294Z,-6
2023-02-08T00:50:05.793Z,-6
2023-02-08T00:51:06.669Z,-6
2023-02-08T00:52:06.261Z,-7
2023-02-08T00:53:05.759Z,-7
2023-02-08T00:54:06.281Z,-6
2023-02-08T00:55:05.875Z,-7
2023-02-08T00:56:06.467Z,-7
2023-02-08T00:57:06.007Z,-6
2023-02-08T00:58:06.735Z,-6
2023-02-08T00:59:06.337Z,-6
2023-02-08T01:00:06.057Z,-6
2023-02-08T01:01:06.592Z,-6
2023-02-08T01:02:05.990Z,-6
2023-02-08T01:03:06.800Z,-6
2023-02-08T01:04:06.471Z,-6
2023-02-08T01:05:05.826Z,-6
2023-02-08T01:06:06.622Z,-6
2023-02-08T01:07:06.079Z,-6
2023-02-08T01:08:05.825Z,-6
2023-02-08T01:09:06.204Z,-6
2023-02-08T01:10:05.814Z,-6
2023-02-08T01:11:06.472Z,-6
2023-02-08T01:12:05.962Z,-6
2023-02-08T01:13:06.661Z,-6
2023-02-08T01:14:06.161Z,-6
2023-02-08T01:15:05.938Z,-6
2023-02-08T01:16:06.349Z,-6
2023-02-08T01:17:05.824Z,-6
2023-02-08T01:18:06.432Z,-6
2023-02-08T01:19:05.896Z,-6
2023-02-08T01:20:06.661Z,-7
2023-02-08T01:21:06.133Z,-6
2023-02-08T01:22:06.477Z,-6
2023-02-08T01:23:06.270Z,-7
2023-02-08T01:24:06.005Z,-6
2023-02-08T01:25:06.486Z,-6
2023-02-08T01:26:06.171Z,-6
2023-02-08T01:27:05.826Z,-7
2023-02-08T01:28:06.590Z,-7
2023-02-08T01:29:06.169Z,-6
2023-02-08T01:30:05.824Z,-6
2023-02-08T01:31:05.836Z,-6
2023-02-08T01:32:06.360Z,-6.1
2023-02-08T01:33:06.025Z,-6.1
2023-02-08T01:34:06.819Z,-6.1
2023-02-08T01:35:06.170Z,-6.1
2023-02-08T01:36:05.910Z,-6.1
2023-02-08T01:37:06.416Z,-7
2023-02-08T01:38:06.111Z,-6
2023-02-08T01:39:05.875Z,-6
2023-02-08T01:40:06.512Z,-6
2023-02-08T01:41:06.156Z,-6
2023-02-08T01:42:05.734Z,-6
2023-02-08T01:43:06.331Z,-7
2023-02-08T01:44:05.942Z,-6.1
2023-02-08T01:45:06.630Z,-6.1
2023-02-08T01:46:05.979Z,-6.1
2023-02-08T01:47:06.234Z,-6.1
2023-02-08T01:48:05.919Z,-6.1
2023-02-08T01:49:06.615Z,-6.1
2023-02-08T01:50:06.260Z,-6
2023-02-08T01:51:05.790Z,-6.1
2023-02-08T01:52:06.594Z,-6.1
2023-02-08T01:53:06.125Z,-6.1
2023-02-08T01:54:06.731Z,-6.1
2023-02-08T01:55:06.307Z,-6
2023-02-08T01:56:05.985Z,-6.1
2023-02-08T01:57:06.593Z,-6.1
2023-02-08T01:58:06.154Z,-6.1
2023-02-08T01:59:05.642Z,-6.1
2023-02-08T02:00:06.796Z,-6.1
2023-02-08T02:01:06.531Z,-6.1
2023-02-08T02:02:06.036Z,-6.2
2023-02-08T02:03:05.759Z,-6.1
2023-02-08T02:04:06.481Z,-6.1
2023-02-08T02:05:05.961Z,-6.1
2023-02-08T02:06:06.653Z,-6.1
2023-02-08T02:07:06.304Z,-6.2
2023-02-08T02:08:05.939Z,-6.2
2023-02-08T02:09:06.445Z,-6.1
2023-02-08T02:10:05.855Z,-6.2
2023-02-08T02:11:05.796Z,-6.1
2023-02-08T02:12:06.150Z,-6.2
2023-02-08T02:13:05.867Z,-6.2
2023-02-08T02:14:06.417Z,-6
2023-02-08T02:15:06.009Z,-6.2
2023-02-08T02:16:06.247Z,-6
2023-02-08T02:17:05.803Z,-6.2
2023-02-08T02:18:06.506Z,-6.2
2023-02-08T02:19:06.235Z,-7
2023-02-08T02:20:05.731Z,-6.2
2023-02-08T02:21:06.448Z,-6.2
2023-02-08T02:22:05.793Z,-6.2
2023-02-08T02:23:06.648Z,-6.2
2023-02-08T02:24:06.356Z,-6.2
2023-02-08T02:25:05.920Z,-6.3
2023-02-08T02:26:06.415Z,-6.3
2023-02-08T02:27:05.930Z,-6.3
2023-02-08T02:28:05.984Z,-6.3
2023-02-08T02:29:06.384Z,-6.3
2023-02-08T02:30:06.119Z,-7
2023-02-08T02:31:06.023Z,-6.3
2023-02-08T02:32:06.707Z,-6.3
2023-02-08T02:33:06.415Z,-6.3
2023-02-08T02:34:06.033Z,-6.3
2023-02-08T02:35:05.645Z,-6.3
2023-02-08T02:36:06.444Z,-6.3
2023-02-08T02:37:05.776Z,-6.3
2023-02-08T02:38:06.463Z,-6.3
2023-02-08T02:39:06.072Z,-7
2023-02-08T02:40:05.558Z,-6.3
2023-02-08T02:41:06.280Z,-6.3
2023-02-08T02:42:06.112Z,-6.3
2023-02-08T02:43:05.715Z,-7
2023-02-08T02:44:06.316Z,-6.3
2023-02-08T02:45:05.850Z,-6.3
2023-02-08T02:46:06.517Z,-6.3
2023-02-08T02:47:06.134Z,-6.3
2023-02-08T02:48:05.823Z,-6.3
2023-02-08T02:49:06.489Z,-6.3
2023-02-08T02:50:06.080Z,-7
2023-02-08T02:51:06.462Z,-6.4
2023-02-08T02:52:06.099Z,-6.3
2023-02-08T02:53:05.852Z,-6.3
2023-02-08T02:54:06.496Z,-7
2023-02-08T02:55:06.006Z,-6.3
2023-02-08T02:56:06.472Z,-7
2023-02-08T02:57:05.994Z,-6.3
2023-02-08T02:58:05.923Z,-6.3
2023-02-08T02:59:06.539Z,-6.3
2023-02-08T03:00:06.193Z,-6.3
2023-02-08T03:01:06.796Z,-6.3
2023-02-08T03:02:06.002Z,-6.3
2023-02-08T03:03:05.779Z,-6.3
2023-02-08T03:04:06.572Z,-7
2023-02-08T03:05:05.987Z,-6.3
2023-02-08T03:06:06.500Z,-7
2023-02-08T03:07:06.320Z,-6.3
2023-02-08T03:08:05.743Z,-7
2023-02-08T03:09:06.442Z,-6.3
2023-02-08T03:10:06.028Z,-6.3
2023-02-08T03:11:06.727Z,-6.3
2023-02-08T03:12:06.246Z,-6.3
2023-02-08T03:13:05.846Z,-6.2
2023-02-08T03:14:06.482Z,-6.2
2023-02-08T03:15:06.111Z,-6.2
2023-02-08T03:16:06.602Z,-6.2
2023-02-08T03:17:06.118Z,-7
2023-02-08T03:18:06.610Z,-6.3
2023-02-08T03:19:06.200Z,-6.3
2023-02-08T03:20:05.650Z,-6.3
2023-02-08T03:21:06.395Z,-7
2023-02-08T03:22:05.819Z,-7
2023-02-08T03:23:06.416Z,-6.3
2023-02-08T03:24:06.308Z,-6.3
2023-02-08T03:25:05.709Z,-6.3
2023-02-08T03:26:06.469Z,-6.3
2023-02-08T03:27:05.831Z,-6.3
2023-02-08T03:28:06.500Z,-6.3
2023-02-08T03:29:05.901Z,-6.3
2023-02-08T03:30:06.707Z,-6.4
2023-02-08T03:31:06.834Z,-6.3
2023-02-08T03:32:05.989Z,-6.4
2023-02-08T03:33:06.448Z,-6.4
2023-02-08T03:34:06.228Z,-6.4
2023-02-08T03:35:05.794Z,-6.4
2023-02-08T03:36:06.298Z,-7
2023-02-08T03:37:05.893Z,-6.4
2023-02-08T03:38:06.399Z,-6.4
2023-02-08T03:39:06.496Z,-6.4
2023-02-08T03:40:06.206Z,-6.4
2023-02-08T03:41:05.820Z,-6.4
2023-02-08T03:42:06.320Z,-6.4
2023-02-08T03:43:05.943Z,-6.4
2023-02-08T03:44:06.515Z,-6.4
2023-02-08T03:45:06.107Z,-6.4
2023-02-08T03:46:05.920Z,-6.4
2023-02-08T03:47:06.494Z,-6.4
2023-02-08T03:48:06.240Z,-7
2023-02-08T03:49:05.818Z,-6.4
2023-02-08T03:50:06.498Z,-6.4
2023-02-08T03:51:06.009Z,-6.4
2023-02-08T03:52:06.629Z,-6.4
2023-02-08T03:53:06.182Z,-6.4
2023-02-08T03:54:05.874Z,-6.4
2023-02-08T03:55:06.497Z,-6.4
2023-02-08T03:56:06.149Z,-6.4
2023-02-08T03:57:06.620Z,-6.4
2023-02-08T03:58:06.192Z,-6.4
2023-02-08T03:59:05.963Z,-6.4
2023-02-08T04:00:06.482Z,-7
2023-02-08T04:01:06.741Z,-6.4
2023-02-08T04:02:06.077Z,-7
2023-02-08T04:03:05.841Z,-6.4
2023-02-08T04:04:06.272Z,-7
2023-02-08T04:05:05.969Z,-6.4
2023-02-08T04:06:05.861Z,-7
2023-02-08T04:07:06.206Z,-6.4
2023-02-08T04:08:05.728Z,-6.4
2023-02-08T04:09:06.495Z,-6.4
2023-02-08T04:10:06.121Z,-6.5
2023-02-08T04:11:05.765Z,-6.5
2023-02-08T04:12:06.341Z,-7
2023-02-08T04:13:06.046Z,-6.5
2023-02-08T04:14:05.693Z,-6.4
2023-02-08T04:15:06.239Z,-6.4
2023-02-08T04:16:06.943Z,-7
2023-02-08T04:17:06.303Z,-6.4
2023-02-08T04:18:05.823Z,-6.4
2023-02-08T04:19:06.303Z,-6.4
2023-02-08T04:20:05.887Z,-6.4
2023-02-08T04:21:06.466Z,-6.4
2023-02-08T04:22:05.992Z,-6.4
2023-02-08T04:23:06.683Z,-6.4
2023-02-08T04:24:06.219Z,-6.4
2023-02-08T04:25:05.804Z,-6.5
2023-02-08T04:26:06.343Z,-6.4
2023-02-08T04:27:08.201Z,-6.4
2023-02-08T04:28:06.830Z,-6.4
2023-02-08T04:29:06.280Z,-6.4
2023-02-08T04:30:05.933Z,-6.5
2023-02-08T04:31:06.135Z,-6.4
2023-02-08T04:32:06.273Z,-6.4
2023-02-08T04:33:05.952Z,-6.5
2023-02-08T04:34:06.408Z,-6.5
2023-02-08T04:35:05.945Z,-7
2023-02-08T04:36:05.931Z,-6.4
2023-02-08T04:37:06.545Z,-6.5
2023-02-08T04:38:06.252Z,-6.4
2023-02-08T04:39:05.855Z,-7
2023-02-08T04:40:06.381Z,-6.4
2023-02-08T04:41:06.199Z,-6.4
2023-02-08T04:42:07.503Z,-6.5
2023-02-08T04:43:06.529Z,-6.5
2023-02-08T04:44:06.132Z,-6.5
2023-02-08T04:45:05.760Z,-6.5
2023-02-08T04:46:06.900Z,-6.5
2023-02-08T04:47:06.055Z,-7
2023-02-08T04:48:05.851Z,-7
2023-02-08T04:49:06.446Z,-6.4
2023-02-08T04:50:05.989Z,-6.4
2023-02-08T04:51:06.445Z,-6.5
2023-02-08T04:52:06.137Z,-6.5
2023-02-08T04:53:05.529Z,-6.5
2023-02-08T04:54:06.498Z,-6.5
2023-02-08T04:55:06.073Z,-6.5
2023-02-08T04:56:06.665Z,-6.5
2023-02-08T04:57:06.146Z,-6.5
2023-02-08T04:58:06.478Z,-6.5
2023-02-08T04:59:05.850Z,-6.5
2023-02-08T05:00:06.723Z,-6.5
2023-02-08T05:01:05.769Z,-6.5
2023-02-08T05:02:06.304Z,-7
2023-02-08T05:03:05.889Z,-6.6
2023-02-08T05:04:06.454Z,-6.6
2023-02-08T05:05:06.163Z,-6.6
2023-02-08T05:06:05.916Z,-6.6
2023-02-08T05:07:06.340Z,-6.6
2023-02-08T05:08:05.837Z,-6.6
2023-02-08T05:09:06.519Z,-6.6
2023-02-08T05:10:05.908Z,-6.6
2023-02-08T05:11:06.647Z,-7
2023-02-08T05:12:06.192Z,-6.6
2023-02-08T05:13:05.792Z,-6.6
2023-02-08T05:14:06.420Z,-6.6
2023-02-08T05:15:05.971Z,-6.6
2023-02-08T05:16:06.595Z,-6.6
2023-02-08T05:17:05.758Z,-6.6
2023-02-08T05:18:06.549Z,-6.6
2023-02-08T05:19:05.737Z,-6.6
2023-02-08T05:20:06.602Z,-6.6
2023-02-08T05:21:06.000Z,-6.6
2023-02-08T05:22:06.642Z,-6.6
2023-02-08T05:23:06.126Z,-7
2023-02-08T05:24:05.867Z,-6.6
2023-02-08T05:25:06.461Z,-7
2023-02-08T05:26:05.887Z,-6.6
2023-02-08T05:27:05.899Z,-7
2023-02-08T05:28:06.596Z,-7
2023-02-08T05:29:06.089Z,-6.6
2023-02-08T05:30:06.652Z,-6.6
2023-02-08T05:31:06.042Z,-6.6
2023-02-08T05:32:06.552Z,-6.6
2023-02-08T05:33:06.140Z,-6.6
2023-02-08T05:34:06.743Z,-7
2023-02-08T05:35:06.284Z,-7
2023-02-08T05:36:08.428Z,-6.6
2023-02-08T05:37:06.675Z,-6.6
2023-02-08T05:38:06.300Z,-6.6
2023-02-08T05:39:05.907Z,-6.6
2023-02-08T05:40:06.578Z,-6.6
2023-02-08T05:41:06.008Z,-6.6
2023-02-08T05:42:06.827Z,-6.6
2023-02-08T05:43:06.265Z,-6.6
2023-02-08T05:44:05.952Z,-7
2023-02-08T05:45:06.493Z,-6.6
2023-02-08T05:46:06.068Z,-7
2023-02-08T05:47:06.943Z,-6.6
2023-02-08T05:48:06.226Z,-6.6
2023-02-08T05:49:05.609Z,-6.6
2023-02-08T05:50:06.406Z,-6.6
2023-02-08T05:51:06.185Z,-6.6
2023-02-08T05:52:05.927Z,-6.6
2023-02-08T05:53:06.336Z,-6.6
2023-02-08T05:54:05.936Z,-6.6
2023-02-08T05:55:06.361Z,-6.6
2023-02-08T05:56:06.174Z,-6.6
2023-02-08T05:57:05.876Z,-6.6
2023-02-08T05:58:06.594Z,-6.6
2023-02-08T05:59:06.159Z,-6.5
2023-02-08T06:00:06.770Z,-6.5
2023-02-08T06:01:06.207Z,-6.6
2023-02-08T06:02:05.806Z,-6.6
2023-02-08T06:03:06.704Z,-6.6
2023-02-08T06:04:06.218Z,-6.6
2023-02-08T06:05:06.614Z,-6.6
2023-02-08T06:06:06.096Z,-6.5
2023-02-08T06:07:05.826Z,-6.5
2023-02-08T06:08:06.660Z,-6.5
2023-02-08T06:09:06.168Z,-6.5
2023-02-08T06:10:05.761Z,-6.5
2023-02-08T06:11:06.350Z,-7
2023-02-08T06:12:05.957Z,-6.5
2023-02-08T06:13:06.556Z,-7
2023-02-08T06:14:05.990Z,-6.5
2023-02-08T06:15:05.664Z,-6.5
2023-02-08T06:16:06.482Z,-6.5
2023-02-08T06:17:05.964Z,-6.5
2023-02-08T06:18:06.413Z,-6.5
2023-02-08T06:19:06.273Z,-6.5
2023-02-08T06:20:05.592Z,-6.5
2023-02-08T06:21:06.430Z,-6.5
2023-02-08T06:22:06.055Z,-6.6
2023-02-08T06:23:06.333Z,-6.6
2023-02-08T06:24:06.304Z,-6.6
2023-02-08T06:25:05.929Z,-7
2023-02-08T06:26:06.591Z,-6.6
2023-02-08T06:27:06.268Z,-6.6
2023-02-08T06:28:05.692Z,-6.6
2023-02-08T06:29:06.498Z,-6.6
2023-02-08T06:30:06.023Z,-6.6
2023-02-08T06:31:06.246Z,-6.6
2023-02-08T06:32:06.123Z,-6.6
2023-02-08T06:33:06.269Z,-7
2023-02-08T06:34:05.745Z,-7
2023-02-08T06:35:06.541Z,-6.6
2023-02-08T06:36:06.228Z,-7
2023-02-08T06:37:05.657Z,-7
2023-02-08T06:38:06.345Z,-6.6
2023-02-08T06:39:06.080Z,-6.6
2023-02-08T06:40:06.720Z,-6.6
2023-02-08T06:41:06.273Z,-6.6
2023-02-08T06:42:06.105Z,-6.5
2023-02-08T06:43:06.664Z,-6.6
2023-02-08T06:44:06.185Z,-6.6
2023-02-08T06:45:05.984Z,-6.6
2023-02-08T06:46:06.348Z,-6.6
2023-02-08T06:47:05.957Z,-6.6
2023-02-08T06:48:06.439Z,-6.6
2023-02-08T06:49:06.167Z,-6.6
2023-02-08T06:50:05.802Z,-6.5
2023-02-08T06:51:06.310Z,-6.5
2023-02-08T06:52:05.843Z,-6.5
2023-02-08T06:53:06.478Z,-6.5
2023-02-08T06:54:05.947Z,-6.5
2023-02-08T06:55:06.492Z,-6.5
2023-02-08T06:56:06.311Z,-6.5
2023-02-08T06:57:05.975Z,-6.5
2023-02-08T06:58:06.511Z,-6.4
2023-02-08T06:59:06.212Z,-6.4
2023-02-08T07:00:05.742Z,-6.5
2023-02-08T07:01:06.088Z,-6.4
2023-02-08T07:02:06.812Z,-7
2023-02-08T07:03:06.205Z,-6.4
2023-02-08T07:04:05.853Z,-6.4
2023-02-08T07:05:06.335Z,-6.4
2023-02-08T07:06:09.592Z,-6.4
2023-02-08T07:07:05.611Z,-6.3
2023-02-08T07:08:06.307Z,-6.3
2023-02-08T07:09:05.781Z,-6.2
2023-02-08T07:10:06.438Z,-6.2
2023-02-08T07:11:06.168Z,-6.1
2023-02-08T07:12:06.614Z,-6.1
2023-02-08T07:13:06.235Z,-6.1
2023-02-08T07:14:05.786Z,-6.1
2023-02-08T07:15:06.414Z,-6
2023-02-08T07:16:06.013Z,-6
2023-02-08T07:17:06.593Z,-6
2023-02-08T07:18:06.308Z,-6
2023-02-08T07:19:05.763Z,-6
2023-02-08T07:20:06.504Z,-5.9
2023-02-08T07:21:06.421Z,-5.9
2023-02-08T07:22:09.564Z,-5.9
2023-02-08T07:23:06.231Z,-5.9
2023-02-08T07:24:05.968Z,-6
2023-02-08T07:25:06.407Z,-5.8
2023-02-08T07:26:06.072Z,-5.7
2023-02-08T07:27:06.727Z,-5.7
2023-02-08T07:28:06.314Z,-5.6
2023-02-08T07:29:05.837Z,-5.6
2023-02-08T07:30:06.325Z,-5.7
2023-02-08T07:31:05.841Z,-5.6
2023-02-08T07:32:06.103Z,-5.6
2023-02-08T07:33:06.354Z,-5.6
2023-02-08T07:34:05.865Z,-5.6
2023-02-08T07:35:06.464Z,-5.5
2023-02-08T07:36:06.135Z,-5
2023-02-08T07:37:05.576Z,-5.5
2023-02-08T07:38:06.333Z,-5.4
2023-02-08T07:39:05.931Z,-5.4
2023-02-08T07:40:06.521Z,-5.3
2023-02-08T07:41:06.041Z,-5.3
2023-02-08T07:42:05.635Z,-5.3
2023-02-08T07:43:06.389Z,-5.3
2023-02-08T07:44:05.912Z,-5.2
2023-02-08T07:45:06.900Z,-5.2
2023-02-08T07:46:06.048Z,-5.2
2023-02-08T07:47:05.693Z,-5.2
2023-02-08T07:48:06.120Z,-5.2
2023-02-08T07:49:05.917Z,-5.1
2023-02-08T07:50:06.551Z,-5.1
2023-02-08T07:51:06.132Z,-5
2023-02-08T07:52:06.540Z,-5
2023-02-08T07:53:06.214Z,-5
2023-02-08T07:54:06.492Z,-5
2023-02-08T07:55:06.348Z,-4.9
2023-02-08T07:56:05.998Z,-4.9
2023-02-08T07:57:08.057Z,-4
2023-02-08T07:58:06.377Z,-4.9
2023-02-08T07:59:05.993Z,-4.8
2023-02-08T08:00:06.526Z,-4
2023-02-08T08:01:25.256Z,-4.8
2023-02-08T08:02:06.629Z,-4.8
2023-02-08T08:03:06.116Z,-4.7
2023-02-08T08:04:06.091Z,-4.7
2023-02-08T08:05:06.363Z,-4.7
2023-02-08T08:06:06.010Z,-4.6
2023-02-08T08:07:06.531Z,-4
2023-02-08T08:08:05.954Z,-4.5
2023-02-08T08:09:06.597Z,-4.5
2023-02-08T08:10:06.303Z,-4.5
2023-02-08T08:11:08.001Z,-4.4
2023-02-08T08:12:06.516Z,-4.4
2023-02-08T08:13:06.061Z,-4.4
2023-02-08T08:14:05.722Z,-4.3
2023-02-08T08:15:06.423Z,-4.3
2023-02-08T08:16:06.186Z,-4.3
2023-02-08T08:17:06.483Z,-4.2
2023-02-08T08:18:06.176Z,-4.2
2023-02-08T08:19:05.893Z,-4.1
2023-02-08T08:20:06.330Z,-3
2023-02-08T08:21:05.885Z,-4
2023-02-08T08:22:06.729Z,-4
2023-02-08T08:23:06.258Z,-3
2023-02-08T08:24:05.877Z,-4
2023-02-08T08:25:06.333Z,-3.9
2023-02-08T08:26:06.009Z,-3.9
2023-02-08T08:27:06.868Z,-3.7
2023-02-08T08:28:06.446Z,-3.8
2023-02-08T08:29:06.052Z,-3.7
2023-02-08T08:30:06.654Z,-3.7
2023-02-08T08:31:06.465Z,-3.6
2023-02-08T08:32:05.815Z,-3
2023-02-08T08:33:06.591Z,-3.5
2023-02-08T08:34:06.082Z,-3.5
2023-02-08T08:35:06.627Z,-3.4
2023-02-08T08:36:06.435Z,-3.3
2023-02-08T08:37:06.077Z,-3.3
2023-02-08T08:38:05.641Z,-3.3
2023-02-08T08:39:06.393Z,-3.2
2023-02-08T08:40:06.045Z,-3.2
2023-02-08T08:41:05.731Z,-3.1
2023-02-08T08:42:06.231Z,-3.1
2023-02-08T08:43:05.626Z,-3
2023-02-08T08:44:06.721Z,-3
2023-02-08T08:45:06.689Z,-3
2023-02-08T08:46:06.086Z,-2.9
2023-02-08T08:47:06.419Z,-2.8
2023-02-08T08:48:06.202Z,-2.8
2023-02-08T08:49:05.707Z,-2.8
2023-02-08T08:50:06.246Z,-2.7
2023-02-08T08:51:05.774Z,-2.7
2023-02-08T08:52:06.500Z,-2.6
2023-02-08T08:53:06.120Z,-2.6
2023-02-08T08:54:05.722Z,-2
2023-02-08T08:55:06.390Z,-2.4
2023-02-08T08:56:06.199Z,-2.3
2023-02-08T08:57:06.658Z,-2
2023-02-08T08:58:06.062Z,-2.2
2023-02-08T08:59:05.634Z,-2.1
2023-02-08T09:00:06.488Z,-2
2023-02-08T09:01:06.508Z,-2
2023-02-08T09:02:06.473Z,-2
2023-02-08T09:03:05.886Z,-1.9
2023-02-08T09:04:06.514Z,-1.8
2023-02-08T09:05:06.037Z,-1.8
2023-02-08T09:06:05.809Z,-2
2023-02-08T09:07:06.308Z,-2
2023-02-08T09:08:05.983Z,-1.6
2023-02-08T09:09:06.598Z,-1.6
2023-02-08T09:10:06.164Z,-1.6
2023-02-08T09:11:05.826Z,-1.5
2023-02-08T09:12:06.167Z,-1.4
2023-02-08T09:13:06.011Z,-1.3
2023-02-08T09:14:08.576Z,-1.3
2023-02-08T09:15:05.976Z,-1.3
2023-02-08T09:16:06.071Z,-1.3
2023-02-08T09:17:06.426Z,-1.2
2023-02-08T09:18:06.079Z,-2
2023-02-08T09:19:06.728Z,-1.2
2023-02-08T09:20:08.938Z,-1.2
2023-02-08T09:21:05.953Z,-1.1
2023-02-08T09:22:06.602Z,-1.1
2023-02-08T09:23:06.262Z,-1.1
2023-02-08T09:24:05.844Z,-1
2023-02-08T09:25:06.363Z,-0.9
2023-02-08T09:26:06.106Z,-0.9
2023-02-08T09:27:06.790Z,-0.9
2023-02-08T09:28:06.579Z,-0.9
2023-02-08T09:29:07.050Z,-2
2023-02-08T09:30:06.384Z,-0.7
2023-02-08T09:31:06.191Z,-0.7
2023-02-08T09:32:07.362Z,-0.7
2023-02-08T09:33:06.041Z,-1
2023-02-08T09:34:06.682Z,-0.5
2023-02-08T09:35:06.219Z,-0.4
2023-02-08T09:36:05.733Z,-1
2023-02-08T09:37:06.444Z,-0.4
2023-02-08T09:38:05.866Z,-0.3
2023-02-08T09:39:06.401Z,-0.2
2023-02-08T09:40:06.285Z,-0.2
2023-02-08T09:41:05.955Z,-1
2023-02-08T09:42:06.614Z,-1
2023-02-08T09:43:06.090Z,-0.2
2023-02-08T09:44:05.806Z,-0.2
2023-02-08T09:45:06.228Z,-0.1
2023-02-08T09:46:05.800Z,-0.1
2023-02-08T09:47:06.410Z,0
2023-02-08T09:48:06.091Z,0
2023-02-08T09:49:05.741Z,0
2023-02-08T09:50:06.423Z,0
2023-02-08T09:51:05.813Z,0
2023-02-08T09:52:06.356Z,-0.1
2023-02-08T09:53:06.076Z,0
2023-02-08T09:54:05.827Z,-1
2023-02-08T09:55:06.374Z,0
2023-02-08T09:56:06.350Z,0
2023-02-08T09:57:06.746Z,0
2023-02-08T09:58:06.210Z,0
2023-02-08T09:59:06.130Z,0
2023-02-08T10:00:06.772Z,0
2023-02-08T10:01:08.364Z,0
2023-02-08T10:02:06.545Z,-1
2023-02-08T10:03:06.151Z,0.1
2023-02-08T10:04:05.836Z,0.2
2023-02-08T10:05:06.292Z,0.2
2023-02-08T10:06:06.066Z,0.2
2023-02-08T10:07:06.579Z,0.2
2023-02-08T10:08:06.232Z,0.3
2023-02-08T10:09:05.660Z,0.3
2023-02-08T10:10:06.319Z,0.3
2023-02-08T10:11:05.820Z,0.2
2023-02-08T10:12:06.467Z,0.3
2023-02-08T10:13:06.042Z,0.3
2023-02-08T10:14:06.660Z,0.3
2023-02-08T10:15:06.280Z,0.3
2023-02-08T10:16:05.951Z,0.3
2023-02-08T10:17:06.264Z,0.5
2023-02-08T10:18:06.000Z,0.6
2023-02-08T10:19:06.373Z,0.6
2023-02-08T10:20:06.071Z,0.5
2023-02-08T10:21:06.573Z,0.5
2023-02-08T10:22:06.412Z,0.5
2023-02-08T10:23:05.983Z,0.5
2023-02-08T10:24:06.693Z,0.5
2023-02-08T10:25:06.364Z,0.5
2023-02-08T10:26:05.574Z,0.5
2023-02-08T10:27:06.400Z,0.5
2023-02-08T10:28:06.237Z,0
2023-02-08T10:29:06.858Z,0.5
2023-02-08T10:30:06.359Z,0.6
2023-02-08T10:31:05.964Z,0.7
2023-02-08T10:32:06.363Z,0
2023-02-08T10:33:05.856Z,0.8
2023-02-08T10:34:08.571Z,0.9
2023-02-08T10:35:05.997Z,1
2023-02-08T10:36:06.557Z,1
2023-02-08T10:37:06.106Z,1.1
2023-02-08T10:38:05.892Z,1.2
2023-02-08T10:39:06.348Z,1.3
2023-02-08T10:40:06.241Z,1.2
2023-02-08T10:41:06.010Z,1.3
2023-02-08T10:42:06.489Z,1.3
2023-02-08T10:43:06.001Z,1.2
2023-02-08T10:44:06.834Z,1.2
2023-02-08T10:45:23.776Z,1.3
2023-02-08T10:46:06.839Z,1.3
2023-02-08T10:47:06.162Z,1.2
2023-02-08T10:48:05.738Z,1.2
2023-02-08T10:49:06.283Z,1.2
2023-02-08T10:50:05.924Z,1.2
2023-02-08T10:51:06.664Z,1.3
2023-02-08T10:52:06.496Z,1.4
2023-02-08T10:53:05.913Z,1.5
2023-02-08T10:54:06.518Z,1.5
2023-02-08T10:55:06.050Z,0
2023-02-08T10:56:05.823Z,1.6
2023-02-08T10:57:06.369Z,1.6
2023-02-08T10:58:06.142Z,1.6
2023-02-08T10:59:06.617Z,0
2023-02-08T11:00:06.309Z,1.7
2023-02-08T11:01:08.574Z,1.8
2023-02-08T11:02:06.243Z,1.9
2023-02-08T11:03:05.978Z,2
2023-02-08T11:04:06.692Z,-1
2023-02-08T11:05:06.088Z,1.9
2023-02-08T11:06:06.665Z,2
2023-02-08T11:07:06.164Z,2
2023-02-08T11:08:05.771Z,2
2023-02-08T11:09:06.460Z,2
2023-02-08T11:10:06.061Z,1.8
2023-02-08T11:11:05.684Z,1.8
2023-02-08T11:12:06.361Z,1.8
2023-02-08T11:13:05.954Z,1.7
2023-02-08T11:14:06.347Z,1.7
2023-02-08T11:15:06.206Z,1.6
2023-02-08T11:16:06.201Z,1.6
2023-02-08T11:17:05.860Z,1.6
2023-02-08T11:18:06.448Z,1.7
2023-02-08T11:19:06.087Z,1.7
2023-02-08T11:20:05.935Z,1.8
2023-02-08T11:21:06.367Z,1.8
2023-02-08T11:22:05.905Z,1.8
2023-02-08T11:23:06.448Z,1.9
2023-02-08T11:24:05.910Z,2
2023-02-08T11:25:06.705Z,2
2023-02-08T11:26:06.243Z,2
2023-02-08T11:27:05.969Z,1.9
2023-02-08T11:28:06.724Z,2
2023-02-08T11:29:06.115Z,2
2023-02-08T11:30:06.652Z,2
2023-02-08T11:31:06.090Z,2
2023-02-08T11:32:06.943Z,1.9
2023-02-08T11:33:06.015Z,1.9
2023-02-08T11:34:05.867Z,1.8
2023-02-08T11:35:06.495Z,1.9
2023-02-08T11:36:05.964Z,1.9
2023-02-08T11:37:06.700Z,1.9
2023-02-08T11:38:06.414Z,1.9
2023-02-08T11:39:05.985Z,1.9
2023-02-08T11:40:06.448Z,1
2023-02-08T11:41:05.989Z,1.8
2023-02-08T11:42:06.692Z,1.8
2023-02-08T11:43:06.235Z,1.8
2023-02-08T11:44:05.873Z,1.8
2023-02-08T11:45:06.535Z,1.8
2023-02-08T11:46:06.716Z,1.8
2023-02-08T11:47:06.027Z,1.8
2023-02-08T11:48:06.013Z,1.7
2023-02-08T11:49:06.615Z,1.7
2023-02-08T11:50:06.117Z,1.6
2023-02-08T11:51:06.605Z,1.6
2023-02-08T11:52:06.188Z,1.6
2023-02-08T11:53:05.714Z,1.5
2023-02-08T11:54:06.549Z,1.6
2023-02-08T11:55:06.014Z,1.6
2023-02-08T11:56:06.650Z,1.6
2023-02-08T11:57:06.078Z,1.6
2023-02-08T11:58:05.797Z,1.7
2023-02-08T11:59:06.382Z,1.7
2023-02-08T12:00:06.097Z,1.6
2023-02-08T12:01:05.688Z,1.6
2023-02-08T12:02:06.531Z,1.6
2023-02-08T12:03:06.109Z,0
2023-02-08T12:04:06.836Z,1.6
2023-02-08T12:05:06.358Z,1.6
2023-02-08T12:06:06.097Z,1.6
2023-02-08T12:07:06.408Z,1.7
2023-02-08T12:08:06.059Z,1.8
2023-02-08T12:09:05.760Z,1.8
2023-02-08T12:10:06.295Z,1.8
2023-02-08T12:11:06.081Z,1.8
2023-02-08T12:12:06.645Z,1.8
2023-02-08T12:13:06.176Z,1.7
2023-02-08T12:14:06.084Z,1.6
2023-02-08T12:15:06.376Z,1.6
2023-02-08T12:16:06.936Z,1.7
2023-02-08T12:17:06.642Z,1.6
2023-02-08T12:18:06.144Z,1.6
2023-02-08T12:19:05.901Z,1.6
2023-02-08T12:20:06.636Z,1.7
2023-02-08T12:21:06.139Z,1.6
2023-02-08T12:22:05.792Z,1.7
2023-02-08T12:23:06.435Z,1.7
2023-02-08T12:24:06.023Z,1.8
2023-02-08T12:25:06.688Z,1.8
2023-02-08T12:26:06.174Z,1.8
2023-02-08T12:27:05.757Z,1
2023-02-08T12:28:06.829Z,1.7
2023-02-08T12:29:06.248Z,1.7
2023-02-08T12:30:05.969Z,1.6
2023-02-08T12:31:06.311Z,1.6
2023-02-08T12:32:05.741Z,1.6
2023-02-08T12:33:06.105Z,1.5
2023-02-08T12:34:06.366Z,1.4
2023-02-08T12:35:06.747Z,1.3
2023-02-08T12:36:10.411Z,1.2
2023-02-08T12:37:05.721Z,1.2
2023-02-08T12:38:06.422Z,1.2
2023-02-08T12:39:25.979Z,1.2
2023-02-08T12:40:06.309Z,1.2
2023-02-08T12:41:06.128Z,1.2
2023-02-08T12:42:06.678Z,1.2
2023-02-08T12:43:06.627Z,1.2
2023-02-08T12:44:06.208Z,1.3
2023-02-08T12:45:05.793Z,1.4
2023-02-08T12:46:06.844Z,1.5
2023-02-08T12:47:06.200Z,1.4
2023-02-08T12:48:09.050Z,1.3
2023-02-08T12:49:06.410Z,1.3
2023-02-08T12:50:06.020Z,1.2
2023-02-08T12:51:06.537Z,1.3
2023-02-08T12:52:08.154Z,1.3
2023-02-08T12:53:06.085Z,1.3
2023-02-08T12:54:06.665Z,1.3
2023-02-08T12:55:06.018Z,1.3
2023-02-08T12:56:05.837Z,1
2023-02-08T12:57:07.175Z,1.3
2023-02-08T12:58:06.167Z,1.2
2023-02-08T12:59:17.013Z,1.2
2023-02-08T13:00:06.162Z,1.2
2023-02-08T13:01:06.449Z,1.2
2023-02-08T13:02:06.150Z,1.2
2023-02-08T13:03:05.998Z,1.2
2023-02-08T13:04:06.584Z,1.2
2023-02-08T13:05:06.186Z,1.2
2023-02-08T13:06:07.988Z,1.2
2023-02-08T13:07:06.276Z,1.3
2023-02-08T13:08:05.900Z,1.2
2023-02-08T13:09:06.453Z,1.2
2023-02-08T13:10:06.087Z,1.2
2023-02-08T13:11:22.608Z,1.2
2023-02-08T13:12:06.272Z,1.2
2023-02-08T13:13:06.011Z,2
2023-02-08T13:14:06.586Z,1.2
2023-02-08T13:15:07.382Z,1.2
2023-02-08T13:16:06.162Z,1.2
2023-02-08T13:17:06.647Z,1.3
2023-02-08T13:18:06.364Z,1.3
2023-02-08T13:19:05.948Z,1.3
2023-02-08T13:20:06.664Z,2
2023-02-08T13:21:06.232Z,1.4
2023-02-08T13:22:06.649Z,1.3
2023-02-08T13:23:06.437Z,1.3
2023-02-08T13:24:05.995Z,1.3
2023-02-08T13:25:12.076Z,2
2023-02-08T13:26:06.113Z,1.2
2023-02-08T13:27:06.018Z,1.3
2023-02-08T13:28:06.759Z,1.2
2023-02-08T13:29:06.701Z,1.2
2023-02-08T13:30:06.269Z,2
2023-02-08T13:31:06.027Z,1.2
2023-02-08T13:32:06.365Z,1.1
2023-02-08T13:33:05.953Z,1.2
2023-02-08T13:34:06.701Z,1.2
2023-02-08T13:35:06.244Z,1.1
2023-02-08T13:36:05.822Z,1.1
2023-02-08T13:37:23.312Z,1.1
2023-02-08T13:38:06.431Z,1.1
2023-02-08T13:39:05.981Z,1.1